Time;durP1;ratioP1;P1;durP2;ratioP2;P2;SDS_P1;SDS_P2;PMS_P1;PMS_P2;Temp;Humidity;BMP_temperature;BMP_pressure;BME280_temperature;BME280_humidity;BME280_pressure;Samples;Min_cycle;Max_cycle;Signal;HPM_P1;HPM_P2
2024/01/19 00:02:08;;;;;;;44.17;27.13;;;;;;;-0.91;73.46;98302.03;5058257;28;20040;-77
2024/01/19 00:04:33;;;;;;;36.58;25.10;;;;;;;-0.96;74.29;98301.81;5060475;28;20028;-76
2024/01/19 00:06:59;;;;;;;41.50;26.70;;;;;;;-0.95;72.97;98306.03;5067273;28;20028;-77
2024/01/19 00:09:24;;;;;;;43.78;27.58;;;;;;;-0.92;73.44;98311.69;5067997;28;20027;-75
2024/01/19 00:11:50;;;;;;;37.80;24.58;;;;;;;-0.90;73.50;98314.16;5065351;28;20517;-76
2024/01/19 00:14:15;;;;;;;39.00;26.02;;;;;;;-0.89;72.83;98318.38;5069464;28;20063;-75
2024/01/19 00:16:42;;;;;;;36.80;25.08;;;;;;;-1.00;71.91;98324.94;5060900;28;20024;-75
2024/01/19 00:19:08;;;;;;;38.88;25.90;;;;;;;-0.85;72.72;98335.31;5063799;28;20029;-75
2024/01/19 00:21:40;;;;;;;35.55;23.60;;;;;;;-0.88;72.84;98340.97;5067281;28;20043;-76
2024/01/19 00:24:05;;;;;;;34.88;23.50;;;;;;;-0.88;72.36;98344.41;5063629;28;20063;-77
2024/01/19 00:26:31;;;;;;;35.83;24.13;;;;;;;-0.98;72.87;98335.22;5062896;28;20056;-77
2024/01/19 00:28:56;;;;;;;32.10;21.30;;;;;;;-0.97;72.89;98337.66;5045298;28;20048;-76
2024/01/19 00:31:22;;;;;;;32.95;21.52;;;;;;;-1.06;72.74;98343.19;5060264;28;20029;-76
2024/01/19 00:33:47;;;;;;;35.85;22.75;;;;;;;-1.20;73.56;98333.59;5062707;28;20033;-75
2024/01/19 00:36:12;;;;;;;35.05;22.15;;;;;;;-1.08;73.08;98353.06;5060623;28;20068;-75
2024/01/19 00:38:38;;;;;;;29.15;21.88;;;;;;;-1.07;72.67;98354.69;5061261;28;21594;-75
2024/01/19 00:41:03;;;;;;;31.77;21.67;;;;;;;-1.12;72.43;98365.72;5063908;28;20029;-76
2024/01/19 00:43:28;;;;;;;32.70;19.73;;;;;;;-1.88;74.01;98365.44;5063107;28;20032;-75
2024/01/19 00:45:54;;;;;;;25.92;17.80;;;;;;;-2.85;74.87;98365.56;5066544;28;20385;-76
2024/01/19 00:48:19;;;;;;;31.73;22.38;;;;;;;-2.02;75.64;98364.44;5065227;28;20056;-75
2024/01/19 00:50:45;;;;;;;35.35;21.02;;;;;;;-2.68;74.15;98364.44;5059008;28;20031;-75
2024/01/19 00:53:10;;;;;;;33.63;20.52;;;;;;;-2.04;75.28;98360.38;5062804;28;20039;-76
2024/01/19 00:55:35;;;;;;;32.83;20.85;;;;;;;-1.51;74.59;98367.91;5059139;28;20072;-75
2024/01/19 00:58:01;;;;;;;34.60;19.63;;;;;;;-1.27;73.54;98369.38;5060109;28;20028;-76
2024/01/19 01:00:26;;;;;;;28.92;18.75;;;;;;;-1.16;73.83;98374.94;5061392;28;20032;-76
2024/01/19 01:02:51;;;;;;;25.75;16.83;;;;;;;-1.13;72.79;98378.97;5061239;28;20029;-75
2024/01/19 01:05:19;;;;;;;27.98;17.35;;;;;;;-1.15;72.49;98381.78;5065533;28;20079;-77
2024/01/19 01:07:44;;;;;;;30.45;17.27;;;;;;;-1.14;72.72;98390.47;5058484;28;20037;-76
2024/01/19 01:10:10;;;;;;;28.17;17.60;;;;;;;-1.13;72.05;98398.13;5059507;28;20029;-76
2024/01/19 01:12:35;;;;;;;30.60;19.23;;;;;;;-1.11;72.20;98400.53;5059633;28;20036;-76
2024/01/19 01:15:00;;;;;;;32.45;19.35;;;;;;;-1.25;72.84;98398.78;5055803;28;20036;-76
2024/01/19 01:17:26;;;;;;;27.52;19.00;;;;;;;-1.18;71.85;98400.47;5060748;28;20028;-76
2024/01/19 01:19:51;;;;;;;23.75;16.52;;;;;;;-1.15;72.99;98404.53;5066377;28;20420;-75
2024/01/19 01:22:17;;;;;;;22.15;16.50;;;;;;;-1.08;72.40;98406.22;5059926;28;20047;-76
2024/01/19 01:24:43;;;;;;;28.45;17.67;;;;;;;-1.21;72.36;98408.72;5057249;28;20047;-76
2024/01/19 01:27:08;;;;;;;27.77;16.52;;;;;;;-1.07;72.16;98418.31;5063916;28;20102;-76
2024/01/19 01:29:34;;;;;;;22.50;15.52;;;;;;;-1.14;72.55;98417.47;5060259;28;20024;-75
2024/01/19 01:31:59;;;;;;;25.08;16.05;;;;;;;-1.33;71.66;98430.31;5056678;28;20075;-76
2024/01/19 01:34:25;;;;;;;26.35;15.82;;;;;;;-1.08;72.66;98424.56;5058672;28;20032;-76
2024/01/19 01:36:50;;;;;;;26.02;15.77;;;;;;;-1.02;71.29;98431.69;5060586;28;20025;-76
2024/01/19 01:39:16;;;;;;;23.85;14.90;;;;;;;-1.06;71.75;98430.44;5061580;28;20031;-75
2024/01/19 01:41:42;;;;;;;24.73;14.98;;;;;;;-1.05;71.97;98428.63;5062239;28;20055;-75
2024/01/19 01:44:08;;;;;;;24.73;14.85;;;;;;;-1.04;71.89;98432.84;5056904;28;20043;-76
2024/01/19 01:46:33;;;;;;;23.27;16.42;;;;;;;-1.06;71.38;98430.44;5047448;28;20468;-75
2024/01/19 01:48:59;;;;;;;24.17;15.82;;;;;;;-1.14;72.72;98427.94;5062182;28;20095;-75
2024/01/19 01:51:24;;;;;;;23.00;14.50;;;;;;;-1.21;72.75;98431.44;5060505;28;20366;-75
2024/01/19 01:53:50;;;;;;;22.35;15.98;;;;;;;-1.23;72.06;98438.69;5061304;28;20039;-76
2024/01/19 01:56:16;;;;;;;24.27;16.60;;;;;;;-1.22;72.36;98435.09;5063880;28;20529;-76
2024/01/19 01:58:42;;;;;;;22.58;15.05;;;;;;;-1.27;72.58;98432.19;5064249;28;20020;-77
2024/01/19 02:01:07;;;;;;;26.30;15.55;;;;;;;-1.33;72.54;98430.31;5061362;28;20043;-75
2024/01/19 02:03:33;;;;;;;18.20;13.48;;;;;;;-1.31;72.01;98436.19;5068904;28;20433;-75
2024/01/19 02:05:58;;;;;;;25.02;16.98;;;;;;;-1.33;71.69;98433.72;5065063;28;20059;-75
2024/01/19 02:08:24;;;;;;;23.83;15.10;;;;;;;-1.25;71.23;98448.53;5066733;28;20098;-77
2024/01/19 02:10:49;;;;;;;23.58;13.45;;;;;;;-1.33;71.99;98432.94;5064657;28;20498;-76
2024/01/19 02:13:15;;;;;;;20.83;14.25;;;;;;;-1.40;72.63;98440.72;5066783;28;20024;-76
2024/01/19 02:15:41;;;;;;;22.73;13.52;;;;;;;-1.36;71.94;98449.00;5061771;28;20421;-76
2024/01/19 02:18:06;;;;;;;18.17;13.05;;;;;;;-1.51;71.55;98441.97;5061352;28;20613;-76
2024/01/19 02:20:32;;;;;;;21.27;13.60;;;;;;;-1.42;70.47;98450.53;5058780;28;20024;-76
2024/01/19 02:22:59;;;;;;;18.85;12.57;;;;;;;-1.48;70.20;98455.66;5059679;28;20041;-75
2024/01/19 02:25:24;;;;;;;20.98;12.80;;;;;;;-1.38;71.29;98457.03;5067185;28;20385;-77
2024/01/19 02:27:50;;;;;;;19.92;11.98;;;;;;;-2.09;69.89;98446.34;5050908;28;20078;-77
2024/01/19 02:30:16;;;;;;;23.95;12.95;;;;;;;-1.74;69.97;98459.56;5066222;28;20159;-77
2024/01/19 02:32:41;;;;;;;18.55;12.75;;;;;;;-1.65;70.23;98457.66;5068905;28;20051;-77
2024/01/19 02:35:07;;;;;;;19.67;11.93;;;;;;;-1.76;70.89;98463.34;5064762;28;20048;-77
2024/01/19 02:37:33;;;;;;;19.00;12.80;;;;;;;-1.99;69.58;98468.66;5065851;28;20156;-77
2024/01/19 02:40:00;;;;;;;23.10;14.75;;;;;;;-1.97;70.14;98466.69;5065203;28;20115;-74
2024/01/19 02:42:25;;;;;;;25.30;15.13;;;;;;;-1.80;70.52;98475.16;5066720;28;20036;-76
2024/01/19 02:44:50;;;;;;;23.20;14.60;;;;;;;-1.74;71.20;98484.91;5068611;28;20036;-77
2024/01/19 02:47:16;;;;;;;21.33;14.40;;;;;;;-1.86;70.28;98474.09;5057303;28;20131;-77
2024/01/19 02:49:41;;;;;;;22.40;13.93;;;;;;;-1.59;69.64;98470.84;5061725;28;20037;-77
2024/01/19 02:52:06;;;;;;;22.80;14.95;;;;;;;-1.58;70.30;98477.72;5044058;28;20040;-77
2024/01/19 02:54:32;;;;;;;23.23;15.85;;;;;;;-1.57;69.61;98483.72;5060300;28;20063;-77
2024/01/19 02:56:57;;;;;;;21.85;14.63;;;;;;;-1.50;69.77;98487.25;5068046;28;20025;-76
2024/01/19 02:59:22;;;;;;;22.25;15.23;;;;;;;-1.62;70.57;98479.03;5065651;28;20028;-75
2024/01/19 03:01:48;;;;;;;24.17;15.52;;;;;;;-1.61;70.26;98475.44;5064147;28;20040;-76
2024/01/19 03:04:13;;;;;;;31.15;18.80;;;;;;;-1.62;70.83;98481.66;5064416;28;20044;-77
2024/01/19 03:06:39;;;;;;;21.75;16.65;;;;;;;-1.85;71.18;98491.38;5062338;28;21807;-75
2024/01/19 03:09:04;;;;;;;23.63;16.42;;;;;;;-2.20;71.28;98476.34;5063761;28;20040;-76
2024/01/19 03:11:30;;;;;;;26.73;17.70;;;;;;;-2.07;70.67;98465.28;5066641;28;20033;-76
2024/01/19 03:13:55;;;;;;;29.00;16.58;;;;;;;-1.85;71.15;98465.25;5063032;28;20048;-75
2024/01/19 03:16:20;;;;;;;29.52;17.85;;;;;;;-1.83;70.63;98450.19;5057815;28;20078;-76
2024/01/19 03:18:46;;;;;;;24.98;16.50;;;;;;;-1.61;70.19;98457.13;5063786;28;20040;-76
2024/01/19 03:21:12;;;;;;;22.42;14.70;;;;;;;-1.54;70.08;98446.75;5057946;28;20048;-76
2024/01/19 03:23:38;;;;;;;23.52;14.32;;;;;;;-1.55;70.12;98456.41;5065797;28;20024;-76
2024/01/19 03:26:03;;;;;;;23.75;14.38;;;;;;;-1.63;69.33;98447.84;5045424;28;20043;-76
2024/01/19 03:28:29;;;;;;;24.00;16.15;;;;;;;-1.56;69.98;98459.22;5059755;28;20025;-75
2024/01/19 03:30:54;;;;;;;24.23;15.82;;;;;;;-1.65;69.45;98452.44;5065165;28;20432;-76
2024/01/19 03:33:20;;;;;;;25.10;16.00;;;;;;;-1.54;69.51;98460.66;5064932;28;20028;-76
2024/01/19 03:35:45;;;;;;;24.33;15.82;;;;;;;-1.67;69.33;98452.63;5062454;28;20042;-75
2024/01/19 03:38:11;;;;;;;24.30;14.30;;;;;;;-1.63;69.61;98453.06;5064849;28;20055;-75
2024/01/19 03:40:36;;;;;;;24.98;16.92;;;;;;;-1.64;69.19;98461.94;5065250;28;20633;-75
2024/01/19 03:43:02;;;;;;;22.05;15.15;;;;;;;-1.69;69.91;98451.19;5062216;28;20064;-75
2024/01/19 03:45:27;;;;;;;22.38;15.55;;;;;;;-1.71;69.92;98467.06;5061915;28;20020;-75
2024/01/19 03:47:53;;;;;;;26.27;16.30;;;;;;;-1.67;69.56;98468.31;5059264;28;20116;-75
2024/01/19 03:50:18;;;;;;;22.85;14.25;;;;;;;-2.19;69.89;98462.31;5064906;28;20033;-75
2024/01/19 03:52:44;;;;;;;27.80;16.50;;;;;;;-1.83;70.24;98471.09;5063162;28;20040;-75
2024/01/19 03:55:10;;;;;;;26.08;15.57;;;;;;;-2.01;69.35;98459.38;5066508;28;20043;-74
2024/01/19 03:57:35;;;;;;;32.55;16.17;;;;;;;-2.62;70.06;98468.22;5061337;28;20029;-75
2024/01/19 04:00:01;;;;;;;27.23;14.90;;;;;;;-2.30;69.64;98470.56;5061941;28;20032;-75
2024/01/19 04:02:26;;;;;;;26.65;16.48;;;;;;;-2.02;70.07;98482.09;5061653;28;20024;-74
2024/01/19 04:04:51;;;;;;;33.58;17.13;;;;;;;-1.90;69.35;98488.50;5062920;28;20115;-75
2024/01/19 04:07:17;;;;;;;27.20;15.75;;;;;;;-1.67;69.79;98489.25;5064992;28;20032;-75
2024/01/19 04:09:42;;;;;;;25.10;15.20;;;;;;;-1.67;68.51;98499.72;5057991;28;20120;-75
2024/01/19 04:12:14;;;;;;;23.33;15.18;;;;;;;-1.72;68.09;98491.59;5055600;28;20056;-75
2024/01/19 04:14:41;;;;;;;22.65;13.70;;;;;;;-1.68;68.70;98494.66;5061579;28;20043;-75
2024/01/19 04:17:06;;;;;;;20.92;14.85;;;;;;;-1.77;68.01;98501.75;5064710;28;20155;-75
2024/01/19 04:19:31;;;;;;;25.23;15.15;;;;;;;-1.76;69.18;98500.78;5060938;28;20107;-75
2024/01/19 04:21:57;;;;;;;29.33;14.88;;;;;;;-1.76;68.50;98516.47;5059678;28;20032;-75
2024/01/19 04:24:22;;;;;;;25.77;15.40;;;;;;;-1.82;67.96;98511.97;5059100;28;20040;-75
2024/01/19 04:26:47;;;;;;;25.95;16.23;;;;;;;-1.94;67.85;98497.69;5062811;28;20423;-76
2024/01/19 04:29:13;;;;;;;22.15;14.48;;;;;;;-2.04;68.89;98510.22;5058613;28;20627;-76
2024/01/19 04:31:38;;;;;;;29.17;16.80;;;;;;;-2.06;69.30;98516.59;5061398;28;20028;-76
2024/01/19 04:34:03;;;;;;;25.23;16.77;;;;;;;-2.11;68.83;98511.91;5054955;28;20041;-76
2024/01/19 04:36:29;;;;;;;32.95;17.17;;;;;;;-2.09;69.18;98524.78;5061975;28;20058;-76
2024/01/19 04:38:54;;;;;;;26.70;16.83;;;;;;;-2.32;70.40;98525.63;5063157;28;20107;-76
2024/01/19 04:41:19;;;;;;;25.95;16.55;;;;;;;-2.07;70.29;98518.41;5067080;28;20035;-77
2024/01/19 04:43:45;;;;;;;32.47;17.00;;;;;;;-1.92;69.02;98524.47;5063382;28;20033;-75
2024/01/19 04:46:10;;;;;;;23.38;15.20;;;;;;;-1.98;70.07;98524.38;5062380;28;20478;-75
2024/01/19 04:48:36;;;;;;;22.38;13.82;;;;;;;-1.87;69.80;98527.38;5060479;28;20036;-76
2024/01/19 04:51:02;;;;;;;21.92;13.77;;;;;;;-1.89;70.03;98524.13;5060450;28;20140;-75
2024/01/19 04:53:27;;;;;;;22.40;13.88;;;;;;;-1.80;69.09;98530.91;5046335;28;20540;-76
2024/01/19 04:55:52;;;;;;;26.35;15.20;;;;;;;-2.04;69.13;98533.75;5055699;28;20021;-76
2024/01/19 04:58:17;;;;;;;23.95;14.13;;;;;;;-1.89;69.82;98537.19;5058962;28;20381;-75
2024/01/19 05:00:43;;;;;;;24.35;14.40;;;;;;;-1.78;69.83;98539.38;5059301;28;20547;-76
2024/01/19 05:03:08;;;;;;;28.20;16.05;;;;;;;-1.94;69.27;98531.69;5067780;28;20091;-75
2024/01/19 05:05:33;;;;;;;28.58;15.27;;;;;;;-1.81;69.74;98528.44;5067567;28;20517;-74
2024/01/19 05:08:00;;;;;;;33.55;18.40;;;;;;;-1.87;69.15;98530.00;5070054;28;20516;-75
2024/01/19 05:10:26;;;;;;;31.65;20.95;;;;;;;-1.94;68.74;98534.28;5038629;28;20033;-75
2024/01/19 05:12:51;;;;;;;33.55;19.13;;;;;;;-1.92;69.36;98539.38;5063162;28;20029;-75
2024/01/19 05:15:16;;;;;;;30.10;18.52;;;;;;;-1.94;69.30;98538.69;5064256;28;20024;-75
2024/01/19 05:17:42;;;;;;;32.33;19.88;;;;;;;-2.07;69.47;98533.25;5055541;28;20032;-75
2024/01/19 05:20:08;;;;;;;29.55;18.92;;;;;;;-2.56;67.42;98532.81;5061105;28;20033;-75
2024/01/19 05:22:33;;;;;;;32.88;20.27;;;;;;;-2.35;68.47;98543.44;5059381;28;20490;-74
2024/01/19 05:25:06;;;;;;;36.42;20.25;;;;;;;-2.07;68.78;98543.72;5061450;28;20079;-86
2024/01/19 05:27:32;;;;;;;31.65;18.35;;;;;;;-2.13;68.79;98560.94;5053592;28;20416;-76
2024/01/19 05:29:57;;;;;;;41.00;22.55;;;;;;;-2.25;68.16;98556.28;5071215;28;20028;-76
2024/01/19 05:32:22;;;;;;;34.42;21.08;;;;;;;-2.10;68.06;98570.22;5062113;28;20056;-76
2024/01/19 05:34:48;;;;;;;35.30;19.92;;;;;;;-2.06;68.82;98569.72;5064538;28;20043;-75
2024/01/19 05:37:13;;;;;;;34.47;19.95;;;;;;;-2.33;67.27;98583.28;5064370;28;20034;-75
2024/01/19 05:39:38;;;;;;;34.70;20.60;;;;;;;-2.09;68.25;98577.06;5067707;28;20058;-75
2024/01/19 05:42:04;;;;;;;30.80;18.80;;;;;;;-2.37;67.58;98592.47;5066521;28;20025;-75
2024/01/19 05:44:29;;;;;;;28.65;17.63;;;;;;;-2.12;68.03;98595.72;5064492;28;20081;-76
2024/01/19 05:46:54;;;;;;;36.00;18.60;;;;;;;-2.06;68.52;98603.69;5067114;28;20067;-76
2024/01/19 05:49:20;;;;;;;31.55;16.88;;;;;;;-2.08;68.71;98604.84;5060945;28;20108;-76
2024/01/19 05:51:45;;;;;;;29.10;18.02;;;;;;;-2.16;68.54;98605.72;5065062;28;20132;-75
2024/01/19 05:54:11;;;;;;;28.38;17.27;;;;;;;-2.15;67.88;98612.56;5066600;28;20032;-76
2024/01/19 05:56:36;;;;;;;26.15;16.08;;;;;;;-2.08;68.63;98615.31;5046429;28;20032;-76
2024/01/19 05:59:02;;;;;;;28.58;17.13;;;;;;;-2.08;68.40;98612.69;5065008;28;20029;-76
2024/01/19 06:01:27;;;;;;;26.10;16.70;;;;;;;-2.27;68.67;98606.09;5063359;28;20036;-76
2024/01/19 06:03:52;;;;;;;39.58;16.70;;;;;;;-2.28;68.15;98604.50;5050130;28;20036;-76
2024/01/19 06:06:19;;;;;;;25.92;15.13;;;;;;;-2.34;68.46;98616.44;5063690;28;20083;-75
2024/01/19 06:08:45;;;;;;;26.95;16.13;;;;;;;-2.36;68.75;98620.22;5063858;28;20029;-75
2024/01/19 06:11:10;;;;;;;22.65;13.70;;;;;;;-2.29;68.39;98628.97;5060823;28;20169;-74
2024/01/19 06:13:39;;;;;;;25.42;15.13;;;;;;;-2.24;68.08;98625.84;5064758;28;20036;-74
2024/01/19 06:16:04;;;;;;;28.52;16.02;;;;;;;-2.19;68.07;98634.00;5064457;28;20029;-74
2024/01/19 06:18:30;;;;;;;27.85;17.17;;;;;;;-2.12;68.55;98641.00;5067277;28;20039;-75
2024/01/19 06:20:55;;;;;;;22.70;15.02;;;;;;;-2.09;68.23;98634.59;5065693;28;20028;-74
2024/01/19 06:23:20;;;;;;;23.85;14.10;;;;;;;-2.16;67.60;98636.28;5063067;28;20036;-74
2024/01/19 06:25:46;;;;;;;23.00;13.68;;;;;;;-2.13;67.25;98644.59;5062827;28;20046;-74
2024/01/19 06:28:11;;;;;;;21.85;13.80;;;;;;;-2.13;67.66;98639.34;5065687;28;20693;-74
2024/01/19 06:30:36;;;;;;;23.30;13.35;;;;;;;-2.13;68.46;98651.59;5064232;28;20033;-75
2024/01/19 06:33:05;;;;;;;24.15;13.55;;;;;;;-2.15;67.83;98650.97;5070138;28;20040;-75
2024/01/19 06:35:31;;;;;;;27.25;14.70;;;;;;;-2.15;68.16;98650.97;5064898;28;20128;-75
2024/01/19 06:37:56;;;;;;;56.70;33.58;;;;;;;-2.29;66.85;98645.50;5070002;28;20469;-75
2024/01/19 06:40:21;;;;;;;30.38;16.48;;;;;;;-2.20;67.54;98658.50;5070828;28;20396;-75
2024/01/19 06:42:47;;;;;;;29.15;18.52;;;;;;;-2.20;67.50;98654.09;5066292;28;20056;-74
2024/01/19 06:45:18;;;;;;;24.83;16.13;;;;;;;-2.19;67.93;98658.34;5071641;28;20041;-74
2024/01/19 06:47:44;;;;;;;28.98;16.33;;;;;;;-2.19;67.71;98655.72;5056088;28;20032;-75
2024/01/19 06:50:10;;;;;;;27.77;15.68;;;;;;;-2.20;68.53;98655.88;5068549;28;20444;-74
2024/01/19 06:52:35;;;;;;;28.98;14.45;;;;;;;-2.16;67.85;98673.66;5064256;28;20055;-75
2024/01/19 06:55:01;;;;;;;27.58;16.65;;;;;;;-2.29;67.44;98666.41;5069435;28;20033;-75
2024/01/19 06:57:26;;;;;;;32.13;20.40;;;;;;;-2.75;67.57;98682.13;5063323;28;20047;-74
2024/01/19 06:59:51;;;;;;;33.35;17.40;;;;;;;-3.22;69.41;98690.72;5055813;28;20037;-74
2024/01/19 07:02:18;;;;;;;36.47;18.77;;;;;;;-2.99;71.13;98682.97;5060912;28;20081;-74
2024/01/19 07:04:43;;;;;;;36.42;20.60;;;;;;;-2.97;70.23;98690.66;5064156;28;20031;-74
2024/01/19 07:07:08;;;;;;;37.28;19.90;;;;;;;-3.17;70.86;98693.63;5061719;28;20040;-74
2024/01/19 07:09:34;;;;;;;33.05;17.73;;;;;;;-2.89;70.93;98701.09;5060922;28;20044;-74
2024/01/19 07:11:59;;;;;;;41.00;20.17;;;;;;;-2.90;71.65;98702.06;5060896;28;20033;-74
2024/01/19 07:14:27;;;;;;;46.08;25.40;;;;;;;-2.94;71.34;98696.34;5062545;28;20060;-75
2024/01/19 07:16:52;;;;;;;33.72;19.38;;;;;;;-3.02;72.05;98709.44;5064641;28;20032;-75
2024/01/19 07:19:18;;;;;;;35.88;17.30;;;;;;;-2.69;72.42;98703.16;5059192;28;20051;-75
2024/01/19 07:21:43;;;;;;;31.58;15.48;;;;;;;-2.51;71.92;98711.56;5068503;28;20029;-75
2024/01/19 07:24:10;;;;;;;41.25;24.48;;;;;;;-2.88;72.36;98718.41;5066237;28;20693;-74
2024/01/19 07:26:36;;;;;;;47.03;27.15;;;;;;;-2.77;72.74;98718.00;5067311;28;20493;-75
2024/01/19 07:29:04;;;;;;;33.40;17.63;;;;;;;-2.75;73.93;98718.69;5066126;28;20035;-74
2024/01/19 07:31:36;;;;;;;28.42;16.77;;;;;;;-2.73;73.36;98714.09;5061394;28;20036;-75
2024/01/19 07:34:03;;;;;;;25.88;14.77;;;;;;;-2.45;72.85;98713.53;5059038;28;20028;-74
2024/01/19 07:36:28;;;;;;;29.45;14.90;;;;;;;-2.38;73.01;98718.88;5058088;28;20135;-74
2024/01/19 07:38:54;;;;;;;20.45;12.82;;;;;;;-2.27;74.05;98737.59;5066402;28;20127;-74
2024/01/19 07:41:20;;;;;;;22.35;12.07;;;;;;;-2.18;73.17;98725.31;5065942;28;20040;-75
2024/01/19 07:43:45;;;;;;;26.05;15.43;;;;;;;-2.13;73.29;98732.63;5067817;28;20115;-75
2024/01/19 07:46:16;;;;;;;24.92;14.00;;;;;;;-2.19;74.18;98739.38;5065873;28;20072;-74
2024/01/19 07:48:43;;;;;;;24.67;13.82;;;;;;;-2.17;74.64;98731.34;5068480;28;20031;-75
2024/01/19 07:51:09;;;;;;;22.17;11.70;;;;;;;-2.00;73.20;98732.91;5062680;28;20032;-75
2024/01/19 07:53:34;;;;;;;26.08;13.75;;;;;;;-2.18;73.43;98727.13;5063613;28;20040;-75
2024/01/19 07:55:59;;;;;;;23.40;11.55;;;;;;;-2.13;75.03;98743.09;5062752;28;20041;-75
2024/01/19 07:58:25;;;;;;;22.70;12.30;;;;;;;-1.97;73.94;98751.69;5062541;28;20037;-75
2024/01/19 08:00:51;;;;;;;23.67;13.63;;;;;;;-2.03;74.34;98754.97;5057159;28;20025;-75
2024/01/19 08:03:17;;;;;;;26.92;13.45;;;;;;;-1.96;74.58;98755.91;5058334;28;20028;-75
2024/01/19 08:05:43;;;;;;;26.08;14.95;;;;;;;-1.98;74.37;98760.50;5059294;28;20040;-74
2024/01/19 08:08:08;;;;;;;17.27;11.43;;;;;;;-1.77;73.93;98773.00;5062133;28;20041;-75
2024/01/19 08:10:35;;;;;;;22.98;12.18;;;;;;;-1.92;74.31;98770.28;5065051;28;20040;-75
2024/01/19 08:13:01;;;;;;;31.23;14.32;;;;;;;-1.93;74.23;98771.28;5061487;28;20028;-75
2024/01/19 08:15:26;;;;;;;32.38;16.35;;;;;;;-2.04;75.58;98774.28;5064471;28;20469;-75
2024/01/19 08:17:51;;;;;;;31.35;14.93;;;;;;;-1.91;75.48;98784.19;5070425;28;20036;-74
2024/01/19 08:20:17;;;;;;;26.63;13.68;;;;;;;-1.91;75.09;98777.16;5063835;28;20119;-74
2024/01/19 08:22:43;;;;;;;26.98;15.00;;;;;;;-2.07;75.69;98779.84;5063421;28;20029;-75
2024/01/19 08:25:09;;;;;;;26.77;13.23;;;;;;;-1.91;75.48;98779.75;5064636;28;20028;-75
2024/01/19 08:27:42;;;;;;;24.95;13.50;;;;;;;-1.94;76.10;98787.13;5066723;28;20065;-75
2024/01/19 08:30:08;;;;;;;24.88;13.93;;;;;;;-1.94;75.88;98795.78;5067284;28;20046;-74
2024/01/19 08:32:37;;;;;;;31.33;16.77;;;;;;;-2.20;77.64;98808.31;5058187;28;20060;-75
2024/01/19 08:35:09;;;;;;;30.08;14.63;;;;;;;-1.96;77.41;98816.06;5063128;28;20028;-75
2024/01/19 08:37:38;;;;;;;41.60;17.85;;;;;;;-2.32;78.44;98823.56;5061297;28;20032;-74
2024/01/19 08:40:08;;;;;;;26.67;14.88;;;;;;;-1.74;75.55;98828.38;5064321;28;20464;-75
2024/01/19 08:42:34;;;;;;;31.05;15.15;;;;;;;-1.75;76.36;98823.34;5063940;28;20024;-76
2024/01/19 08:45:00;;;;;;;28.35;14.25;;;;;;;-1.74;75.32;98838.03;5066698;28;20086;-75
2024/01/19 08:47:26;;;;;;;26.00;13.25;;;;;;;-1.74;76.11;98836.25;5066205;28;20032;-74
2024/01/19 08:49:51;;;;;;;30.23;15.77;;;;;;;-1.73;75.48;98842.28;5069546;28;20113;-75
2024/01/19 08:52:17;;;;;;;32.08;15.07;;;;;;;-1.72;76.44;98841.28;5064629;28;20082;-76
2024/01/19 08:54:42;;;;;;;32.22;17.45;;;;;;;-1.77;76.43;98836.56;5057061;28;20029;-75
2024/01/19 08:57:07;;;;;;;31.83;15.75;;;;;;;-1.67;76.22;98844.22;5061949;28;20520;-74
2024/01/19 08:59:33;;;;;;;25.13;14.68;;;;;;;-1.61;75.91;98859.22;5057014;28;20032;-76
2024/01/19 09:01:58;;;;;;;28.38;16.05;;;;;;;-1.71;75.82;98854.22;5056298;28;20040;-75
2024/01/19 09:04:24;;;;;;;29.95;15.52;;;;;;;-1.69;76.46;98852.25;5061547;28;20033;-75
2024/01/19 09:06:50;;;;;;;29.83;15.50;;;;;;;-1.68;76.00;98855.66;5058604;28;20033;-75
2024/01/19 09:09:15;;;;;;;31.60;15.98;;;;;;;-1.82;76.73;98846.75;5059742;28;20036;-75
2024/01/19 09:11:41;;;;;;;32.60;16.75;;;;;;;-1.73;77.07;98864.03;5067790;28;20032;-75
2024/01/19 09:14:09;;;;;;;39.80;19.45;;;;;;;-1.75;76.79;98865.19;5062257;28;20489;-75
2024/01/19 09:16:35;;;;;;;31.27;15.20;;;;;;;-1.77;77.05;98869.78;5053168;28;20021;-75
2024/01/19 09:19:00;;;;;;;31.52;14.52;;;;;;;-1.74;76.98;98872.88;5060486;28;20039;-75
2024/01/19 09:21:26;;;;;;;37.53;19.88;;;;;;;-1.80;76.61;98881.41;5042602;28;20029;-75
2024/01/19 09:23:51;;;;;;;38.42;16.52;;;;;;;-1.76;76.63;98877.44;5063599;28;20033;-75
2024/01/19 09:26:21;;;;;;;35.13;17.92;;;;;;;-1.72;77.16;98876.13;5062702;28;20021;-75
2024/01/19 09:28:46;;;;;;;33.20;16.27;;;;;;;-1.75;76.45;98875.66;5064371;28;21030;-75
2024/01/19 09:31:13;;;;;;;36.85;18.70;;;;;;;-1.71;76.91;98880.38;5059093;28;20091;-75
2024/01/19 09:33:38;;;;;;;33.60;17.10;;;;;;;-1.84;76.72;98881.91;5060139;28;20028;-75
2024/01/19 09:36:04;;;;;;;41.65;17.42;;;;;;;-1.70;76.64;98905.53;5061646;28;21133;-75
2024/01/19 09:38:30;;;;;;;34.80;17.40;;;;;;;-1.61;77.00;98906.31;5061069;28;20037;-75
2024/01/19 09:41:20;;;;;;;35.08;17.67;;;;;;;-1.52;77.01;98916.59;5062984;28;20160;-75
2024/01/19 09:43:48;;;;;;;36.58;17.63;;;;;;;-1.53;76.38;98922.81;5058680;28;20456;-75
2024/01/19 09:46:19;;;;;;;34.22;16.15;;;;;;;-1.52;76.80;98926.25;5058791;28;20017;-75
2024/01/19 09:49:25;;;;;;;32.55;15.60;;;;;;;-1.55;76.96;98922.16;5061420;28;20485;-75
2024/01/19 09:52:02;;;;;;;38.42;16.25;;;;;;;-1.56;77.35;98933.63;4937555;28;20099;-75
2024/01/19 09:54:33;;;;;;;34.85;15.30;;;;;;;-1.58;77.00;98951.31;5037491;28;20323;-75
2024/01/19 09:57:03;;;;;;;30.95;16.58;;;;;;;-1.63;77.51;98953.59;5058755;28;20082;-75
2024/01/19 09:59:33;;;;;;;33.72;16.48;;;;;;;-1.55;77.17;98956.19;5055649;28;20032;-75
2024/01/19 10:02:01;;;;;;;35.97;16.20;;;;;;;-1.49;76.82;98951.25;5054106;28;20039;-76
2024/01/19 10:04:27;;;;;;;34.95;16.33;;;;;;;-1.55;77.54;98950.13;5054481;28;20032;-75
2024/01/19 10:06:54;;;;;;;35.42;17.65;;;;;;;-1.52;77.02;98968.94;5052120;28;20388;-75
2024/01/19 10:09:22;;;;;;;33.75;16.33;;;;;;;-1.55;77.81;98971.88;5058853;28;20540;-75
2024/01/19 10:11:51;;;;;;;41.72;17.50;;;;;;;-1.49;77.55;98975.63;5059029;28;20126;-76
2024/01/19 10:14:18;;;;;;;35.67;18.65;;;;;;;-1.56;77.51;98970.25;5060264;28;20112;-75
2024/01/19 10:16:43;;;;;;;31.70;14.88;;;;;;;-1.46;77.65;98980.50;5061992;28;20032;-75
2024/01/19 10:19:12;;;;;;;37.10;16.60;;;;;;;-1.55;77.62;98971.06;5059181;28;20033;-75
2024/01/19 10:21:38;;;;;;;33.15;17.23;;;;;;;-1.52;77.84;98978.59;5058134;28;20093;-75
2024/01/19 10:24:11;;;;;;;38.97;14.68;;;;;;;-1.53;77.83;98967.28;5063212;28;20032;-75
2024/01/19 10:26:37;;;;;;;37.70;18.90;;;;;;;-1.53;77.90;98972.53;5058394;28;20105;-74
2024/01/19 10:29:10;;;;;;;40.65;16.85;;;;;;;-1.45;77.79;98986.56;5065195;28;20028;-75
2024/01/19 10:31:36;;;;;;;34.47;15.63;;;;;;;-1.49;77.52;98980.88;5057900;28;20458;-75
2024/01/19 10:34:02;;;;;;;31.98;13.88;;;;;;;-1.42;77.51;98994.09;5065101;28;20063;-75
2024/01/19 10:36:36;;;;;;;38.70;16.23;;;;;;;-1.44;77.58;98989.00;5053029;28;20040;-75
2024/01/19 10:39:24;;;;;;;26.75;15.02;;;;;;;-1.37;77.44;98986.53;5060297;28;20028;-75
2024/01/19 10:41:51;;;;;;;31.70;16.10;;;;;;;-1.32;78.07;98984.25;5064225;28;20466;-75
2024/01/19 10:44:21;;;;;;;35.20;16.77;;;;;;;-1.44;77.94;98985.59;5064663;28;20020;-75
2024/01/19 10:46:49;;;;;;;28.73;14.25;;;;;;;-1.38;78.35;98998.00;5065752;28;20089;-74
2024/01/19 10:49:18;;;;;;;20.80;12.55;;;;;;;-1.41;78.66;98980.84;5061983;28;20021;-75
2024/01/19 10:51:45;;;;;;;30.85;12.07;;;;;;;-1.39;78.36;98993.75;5058766;28;20025;-75
2024/01/19 10:54:23;;;;;;;32.78;17.48;;;;;;;-1.37;79.18;98995.22;5027635;28;20481;-75
2024/01/19 10:57:00;;;;;;;37.50;16.67;;;;;;;-1.34;78.94;98988.81;5062037;28;20131;-75
2024/01/19 10:59:25;;;;;;;34.60;16.17;;;;;;;-1.31;79.03;98991.13;5061140;28;20033;-75
2024/01/19 11:01:58;;;;;;;31.30;16.67;;;;;;;-1.18;78.86;98979.09;5057152;28;20036;-75
2024/01/19 11:04:24;;;;;;;36.50;16.30;;;;;;;-1.19;78.26;98990.56;5060182;28;20021;-75
2024/01/19 11:06:50;;;;;;;30.90;13.95;;;;;;;-1.10;78.43;98989.56;5067935;28;20043;-75
2024/01/19 11:09:15;;;;;;;30.05;11.48;;;;;;;-1.23;78.31;98991.06;5063335;28;20075;-75
2024/01/19 11:11:51;;;;;;;30.23;15.60;;;;;;;-1.18;78.58;99002.66;5057550;28;20039;-75
2024/01/19 11:14:18;;;;;;;31.73;14.77;;;;;;;-1.23;79.06;98993.69;5059002;28;20040;-75